createdAt,value
2023-03-06T00:02:03.817Z,73.00
2023-03-06T00:04:45.530Z,71.58
2023-03-06T00:07:41.300Z,70.50
2023-03-06T00:10:14.689Z,73.21
2023-03-06T00:12:41.464Z,71.44
2023-03-06T00:18:02.187Z,76.55
2023-03-06T00:20:28.803Z,73.08
2023-03-06T00:22:58.417Z,74.11
2023-03-06T00:25:25.626Z,74.49
2023-03-06T00:28:01.490Z,75.70
2023-03-06T00:30:37.442Z,80.00
2023-03-06T00:33:07.754Z,78.37
2023-03-06T00:35:52.630Z,75.07
2023-03-06T00:38:25.812Z,76.00
2023-03-06T00:41:09.420Z,77.00
2023-03-06T00:43:36.167Z,76.06
2023-03-06T00:46:05.654Z,75.85
2023-03-06T00:48:33.289Z,77.30
2023-03-06T00:51:03.134Z,77.16
2023-03-06T00:53:29.702Z,77.99
2023-03-06T00:55:56.282Z,79.41
2023-03-06T00:58:22.904Z,80.71
2023-03-06T01:00:49.519Z,79.34
2023-03-06T01:03:16.427Z,79.93
2023-03-06T01:06:02.829Z,80.54
2023-03-06T01:08:34.507Z,81.36
2023-03-06T01:11:04.940Z,79.79
2023-03-06T01:13:40.827Z,80.17
2023-03-06T01:16:10.056Z,80.23
2023-03-06T01:18:45.453Z,80.86
2023-03-06T01:21:18.903Z,79.99
2023-03-06T01:23:45.587Z,80.48
2023-03-06T01:26:12.239Z,81.71
2023-03-06T01:28:38.896Z,80.49
2023-03-06T01:31:09.498Z,80.38
2023-03-06T01:33:41.453Z,82.42
2023-03-06T01:36:11.418Z,80.26
2023-03-06T01:38:40.844Z,80.11
2023-03-06T01:41:13.392Z,81.57
2023-03-06T01:43:42.040Z,80.99
2023-03-06T01:46:29.497Z,79.87
2023-03-06T01:49:04.310Z,81.50
2023-03-06T01:51:35.998Z,83.66
2023-03-06T01:54:07.605Z,79.92
2023-03-06T01:56:34.887Z,80.07
2023-03-06T01:59:07.514Z,79.62
2023-03-06T02:01:44.924Z,81.86
2023-03-06T02:04:11.901Z,81.38
2023-03-06T02:06:41.294Z,80.54
2023-03-06T02:09:07.881Z,81.83
2023-03-06T02:11:34.563Z,84.27
2023-03-06T02:14:10.890Z,81.59
2023-03-06T02:16:45.024Z,81.72
2023-03-06T02:19:28.223Z,82.71
2023-03-06T02:21:57.914Z,81.44
2023-03-06T02:24:35.529Z,81.83
2023-03-06T02:27:04.265Z,83.24
2023-03-06T02:29:34.070Z,82.69
2023-03-06T02:32:04.689Z,85.65
2023-03-06T02:34:46.626Z,82.97
2023-03-06T02:37:16.531Z,81.88
2023-03-06T02:39:51.798Z,81.94
2023-03-06T02:42:25.279Z,81.04
2023-03-06T02:44:57.576Z,81.01
2023-03-06T02:47:26.218Z,80.93
2023-03-06T02:50:01.973Z,82.66
2023-03-06T02:52:31.743Z,81.63
2023-03-06T02:55:04.543Z,83.78
2023-03-06T02:57:38.264Z,82.71
2023-03-06T03:00:14.922Z,81.38
2023-03-06T03:02:41.920Z,82.53
2023-03-06T03:05:08.993Z,82.11
2023-03-06T03:07:36.084Z,81.66
2023-03-06T03:10:05.921Z,83.32
2023-03-06T03:12:35.358Z,82.40
2023-03-06T03:15:02.046Z,80.98
2023-03-06T03:17:36.189Z,81.22
2023-03-06T03:20:04.959Z,81.72
2023-03-06T03:22:47.200Z,83.67
2023-03-06T03:25:18.050Z,81.18
2023-03-06T03:27:47.486Z,83.41
2023-03-06T03:30:27.345Z,81.23
2023-03-06T03:32:54.011Z,81.24
2023-03-06T03:35:23.909Z,81.31
2023-03-06T03:37:50.598Z,80.86
2023-03-06T03:40:17.329Z,81.51
2023-03-06T03:42:51.320Z,80.32
2023-03-06T03:45:28.004Z,80.80
2023-03-06T03:48:06.650Z,81.70
2023-03-06T03:50:39.943Z,81.75
2023-03-06T03:53:07.473Z,81.94
2023-03-06T03:55:34.141Z,81.17
2023-03-06T03:58:00.717Z,81.48
2023-03-06T04:00:41.613Z,81.63
2023-03-06T04:03:11.323Z,82.10
2023-03-06T04:05:47.284Z,83.43
2023-03-06T04:08:14.223Z,82.59
2023-03-06T04:10:47.277Z,81.50
2023-03-06T04:13:25.758Z,82.36
2023-03-06T04:15:54.382Z,82.69
2023-03-06T04:18:25.335Z,82.90
2023-03-06T04:21:11.525Z,85.43
2023-03-06T04:23:44.366Z,82.55
2023-03-06T04:26:10.964Z,82.73
2023-03-06T04:28:40.560Z,83.45
2023-03-06T04:31:07.182Z,84.19
2023-03-06T04:33:33.836Z,84.91
2023-03-06T04:36:03.690Z,83.34
2023-03-06T04:38:30.343Z,84.60
2023-03-06T04:40:56.974Z,82.14
2023-03-06T04:43:26.593Z,81.23
2023-03-06T04:45:53.236Z,81.16
2023-03-06T04:48:22.247Z,81.37
2023-03-06T04:50:51.710Z,82.54
2023-03-06T04:53:18.304Z,82.85
2023-03-06T04:55:48.107Z,81.68
2023-03-06T04:58:17.384Z,82.51
2023-03-06T05:00:44.159Z,83.38
2023-03-06T05:03:17.639Z,83.75
2023-03-06T05:05:44.308Z,84.50
2023-03-06T05:08:18.813Z,85.00
2023-03-06T05:10:46.542Z,84.46
2023-03-06T05:13:13.228Z,85.06
2023-03-06T05:15:40.820Z,85.14
2023-03-06T05:18:07.418Z,85.10
2023-03-06T05:20:33.993Z,85.94
2023-03-06T05:23:11.602Z,85.35
2023-03-06T05:25:47.715Z,85.49
2023-03-06T05:28:14.330Z,86.67
2023-03-06T05:30:46.933Z,85.54
2023-03-06T05:33:13.526Z,86.01
2023-03-06T05:35:45.789Z,85.47
2023-03-06T05:38:16.995Z,87.05
2023-03-06T05:40:57.344Z,85.93
2023-03-06T05:43:23.898Z,87.89
2023-03-06T05:46:00.939Z,86.24
2023-03-06T05:48:30.489Z,86.88
2023-03-06T05:51:11.102Z,85.91
2023-03-06T05:53:47.526Z,85.20
2023-03-06T05:56:28.984Z,85.22
2023-03-06T05:58:56.234Z,85.41
2023-03-06T06:01:22.968Z,85.61
2023-03-06T06:03:51.323Z,85.58
2023-03-06T06:06:22.850Z,85.46
2023-03-06T06:08:56.641Z,84.86
2023-03-06T06:11:26.055Z,84.60
2023-03-06T06:13:55.488Z,84.66
2023-03-06T06:16:22.090Z,85.82
2023-03-06T06:18:48.694Z,86.38
2023-03-06T06:21:16.268Z,86.62
2023-03-06T06:23:49.276Z,86.56
2023-03-06T06:26:16.835Z,87.28
2023-03-06T06:28:53.160Z,87.60
2023-03-06T06:31:22.226Z,86.20
2023-03-06T06:34:06.514Z,86.58
2023-03-06T06:36:40.465Z,87.81
2023-03-06T06:39:11.083Z,86.08
2023-03-06T06:41:55.452Z,86.09
2023-03-06T06:44:23.874Z,87.15
2023-03-06T06:49:37.213Z,86.07
2023-03-06T06:52:07.330Z,87.06
2023-03-06T06:54:34.700Z,86.02
2023-03-06T06:57:01.416Z,86.28
2023-03-06T06:59:28.123Z,87.05
2023-03-06T07:01:57.848Z,86.32
2023-03-06T07:04:24.390Z,86.49
2023-03-06T07:06:51.075Z,86.44
2023-03-06T07:09:17.702Z,85.21
2023-03-06T07:11:44.356Z,86.37
2023-03-06T07:14:11.612Z,85.77
2023-03-06T07:16:38.189Z,84.98
2023-03-06T07:19:04.798Z,85.02
2023-03-06T07:21:31.663Z,85.57
2023-03-06T07:23:59.737Z,86.88
2023-03-06T07:26:34.397Z,86.99
2023-03-06T07:29:05.549Z,85.75
2023-03-06T07:31:32.357Z,85.96
2023-03-06T07:34:04.705Z,86.33
2023-03-06T07:36:32.153Z,87.12
2023-03-06T07:39:05.644Z,85.84
2023-03-06T07:41:38.275Z,84.30
2023-03-06T07:44:05.053Z,84.29
2023-03-06T07:46:33.909Z,83.04
2023-03-06T07:49:00.527Z,83.28
2023-03-06T07:51:32.769Z,83.48
2023-03-06T07:53:59.565Z,84.02
2023-03-06T07:56:26.246Z,83.92
2023-03-06T07:58:52.966Z,82.06
2023-03-06T08:01:21.443Z,81.22
2023-03-06T08:03:48.224Z,81.36
2023-03-06T08:06:17.565Z,79.76
2023-03-06T08:08:45.756Z,78.88
2023-03-06T08:11:14.094Z,77.47
2023-03-06T08:13:42.255Z,77.86
2023-03-06T08:16:10.412Z,78.07
2023-03-06T08:18:37.537Z,75.96
2023-03-06T08:21:10.117Z,75.71
2023-03-06T08:23:36.784Z,76.41
2023-03-06T08:26:08.404Z,76.53
2023-03-06T08:28:35.349Z,75.94
2023-03-06T08:31:29.002Z,74.42
2023-03-06T08:33:57.893Z,74.14
2023-03-06T08:36:24.521Z,74.31
2023-03-06T08:39:04.789Z,75.31
2023-03-06T08:41:42.556Z,75.18
2023-03-06T08:44:13.186Z,75.23
2023-03-06T08:46:40.397Z,75.15
2023-03-06T08:49:07.126Z,75.92
2023-03-06T08:51:33.800Z,75.67
2023-03-06T08:54:00.416Z,75.81
2023-03-06T08:56:32.678Z,76.46
2023-03-06T08:59:11.156Z,75.93
2023-03-06T09:01:44.623Z,75.83
2023-03-06T09:04:14.265Z,75.78
2023-03-06T09:06:45.306Z,76.21
2023-03-06T09:09:19.924Z,76.02
2023-03-06T09:11:47.185Z,75.56
2023-03-06T09:14:14.427Z,74.74
2023-03-06T09:16:41.148Z,74.19
2023-03-06T09:19:07.729Z,74.30
2023-03-06T09:21:44.948Z,73.68
2023-03-06T09:24:12.050Z,73.68
2023-03-06T09:26:46.461Z,73.80
2023-03-06T09:29:14.397Z,73.71
2023-03-06T09:31:47.498Z,73.34
2023-03-06T09:34:17.423Z,73.83
2023-03-06T09:39:29.679Z,72.72
2023-03-06T09:41:57.102Z,72.48
2023-03-06T09:44:27.866Z,72.68
2023-03-06T09:47:08.262Z,72.54
2023-03-06T09:49:58.613Z,71.42
2023-03-06T09:52:51.044Z,71.89
2023-03-06T09:55:21.749Z,72.76
2023-03-06T09:58:19.946Z,72.43
2023-03-06T10:01:05.091Z,71.78
2023-03-06T10:04:05.025Z,71.36
2023-03-06T10:06:37.766Z,70.32
2023-03-06T10:09:21.384Z,71.76
2023-03-06T10:11:57.281Z,70.56
2023-03-06T10:14:38.224Z,69.99
2023-03-06T10:17:17.849Z,69.44
2023-03-06T10:19:47.870Z,69.37
2023-03-06T10:22:34.382Z,67.03
2023-03-06T10:25:19.648Z,68.32
2023-03-06T10:28:20.048Z,68.20
2023-03-06T10:31:08.869Z,68.82
2023-03-06T10:33:41.822Z,67.15
2023-03-06T10:36:14.617Z,67.53
2023-03-06T10:38:46.865Z,66.83
2023-03-06T10:41:33.423Z,67.47
2023-03-06T10:44:02.974Z,67.11
2023-03-06T10:46:37.078Z,67.29
2023-03-06T10:49:23.397Z,66.91
2023-03-06T10:52:19.426Z,65.70
2023-03-06T10:55:15.316Z,66.48
2023-03-06T10:57:44.976Z,66.29
2023-03-06T11:00:34.351Z,67.36
2023-03-06T11:03:24.244Z,67.12
2023-03-06T11:06:42.342Z,67.83
2023-03-06T11:09:26.547Z,67.97
2023-03-06T11:12:13.183Z,67.69
2023-03-06T11:14:39.800Z,67.76
2023-03-06T11:17:35.538Z,68.43
2023-03-06T11:20:20.160Z,69.05
2023-03-06T11:22:52.377Z,68.24
2023-03-06T11:25:26.451Z,67.91
2023-03-06T11:28:01.745Z,68.06
2023-03-06T11:31:02.205Z,68.67
2023-03-06T11:33:51.539Z,69.09
2023-03-06T11:36:23.736Z,68.31
2023-03-06T11:38:52.180Z,68.84
2023-03-06T11:41:48.771Z,68.82
2023-03-06T11:44:45.630Z,68.48
2023-03-06T11:47:46.504Z,68.99
2023-03-06T11:50:32.858Z,69.29
2023-03-06T11:53:08.300Z,68.87
2023-03-06T11:56:19.674Z,69.58
2023-03-06T11:59:19.423Z,69.79
2023-03-06T12:02:21.144Z,68.69
2023-03-06T12:05:29.918Z,68.87
2023-03-06T12:08:25.596Z,69.24
2023-03-06T12:11:11.380Z,69.32
2023-03-06T12:14:04.134Z,69.58
2023-03-06T12:16:58.390Z,69.46
2023-03-06T12:19:30.287Z,67.96
2023-03-06T12:22:34.592Z,69.24
2023-03-06T12:25:32.018Z,69.59
2023-03-06T12:28:13.108Z,68.77
2023-03-06T12:31:03.721Z,68.55
2023-03-06T12:34:10.778Z,68.53
2023-03-06T12:36:59.003Z,68.35
2023-03-06T12:39:42.664Z,68.23
2023-03-06T12:42:34.594Z,67.86
2023-03-06T12:45:04.231Z,68.80
2023-03-06T12:47:40.492Z,67.57
2023-03-06T12:50:35.910Z,68.39
2023-03-06T12:53:20.764Z,67.68
2023-03-06T12:56:04.044Z,68.24
2023-03-06T12:58:46.316Z,67.18
2023-03-06T13:01:53.036Z,68.17
2023-03-06T13:04:52.698Z,67.49
2023-03-06T13:07:29.382Z,66.31
2023-03-06T13:10:12.753Z,65.98
2023-03-06T13:12:52.231Z,65.24
2023-03-06T13:15:44.065Z,65.59
2023-03-06T13:18:22.643Z,64.08
2023-03-06T13:23:33.090Z,63.39
2023-03-06T13:26:22.374Z,63.18
2023-03-06T13:28:58.730Z,65.08
2023-03-06T13:31:34.566Z,65.11
2023-03-06T13:34:03.784Z,66.02
2023-03-06T13:36:39.473Z,65.86
2023-03-06T13:39:19.810Z,66.60
2023-03-06T13:42:00.295Z,67.07
2023-03-06T13:44:30.065Z,67.22
2023-03-06T13:47:20.457Z,67.13
2023-03-06T13:49:52.757Z,65.57
2023-03-06T13:52:37.346Z,66.79
2023-03-06T13:55:12.612Z,65.40
2023-03-06T13:57:59.971Z,64.70
2023-03-06T14:00:54.846Z,64.95
2023-03-06T14:03:52.541Z,64.57
2023-03-06T14:09:29.543Z,65.97
2023-03-06T14:12:36.163Z,66.58
2023-03-06T14:15:23.946Z,66.02
2023-03-06T14:18:07.255Z,66.85
2023-03-06T14:20:39.938Z,63.12
2023-03-06T14:23:21.554Z,65.59
2023-03-06T14:25:59.543Z,65.36
2023-03-06T14:28:40.827Z,65.41
2023-03-06T14:31:20.887Z,65.02
2023-03-06T14:33:55.739Z,64.07
2023-03-06T14:36:25.975Z,65.35
2023-03-06T14:39:31.944Z,65.60
2023-03-06T14:42:24.538Z,64.37
2023-03-06T14:45:17.894Z,66.61
2023-03-06T14:48:04.313Z,63.14
2023-03-06T14:50:40.981Z,64.51
2023-03-06T14:53:30.430Z,63.66
2023-03-06T14:56:00.109Z,65.82
2023-03-06T14:58:40.747Z,66.72
2023-03-06T15:01:10.559Z,65.55
2023-03-06T15:03:51.473Z,64.15
2023-03-06T15:06:32.548Z,65.59
2023-03-06T15:09:05.846Z,65.01
2023-03-06T15:11:55.100Z,66.03
2023-03-06T15:14:30.715Z,65.92
2023-03-06T15:17:18.788Z,65.36
2023-03-06T15:19:50.475Z,64.97
2023-03-06T15:22:46.054Z,65.70
2023-03-06T15:25:35.074Z,64.43
2023-03-06T15:28:22.869Z,64.28
2023-03-06T15:31:13.870Z,66.36
2023-03-06T15:33:40.491Z,65.63
2023-03-06T15:36:20.934Z,64.24
2023-03-06T15:38:55.779Z,65.53
2023-03-06T15:41:36.725Z,66.43
2023-03-06T15:44:11.026Z,65.83
2023-03-06T15:46:37.699Z,65.68
2023-03-06T15:49:04.388Z,66.04
2023-03-06T15:51:32.633Z,66.20
2023-03-06T15:54:11.899Z,65.51
2023-03-06T15:56:48.199Z,65.44
2023-03-06T15:59:42.975Z,64.79
2023-03-06T16:02:18.779Z,64.65
2023-03-06T16:04:48.914Z,64.85
2023-03-06T16:07:19.325Z,66.43
2023-03-06T16:09:45.994Z,65.49
2023-03-06T16:12:25.063Z,66.28
2023-03-06T16:14:58.166Z,66.80
2023-03-06T16:17:24.846Z,66.61
2023-03-06T16:19:51.824Z,65.11
2023-03-06T16:22:22.632Z,66.47
2023-03-06T16:24:49.284Z,67.62
2023-03-06T16:27:29.453Z,67.67
2023-03-06T16:29:56.644Z,67.29
2023-03-06T16:32:23.441Z,66.76
2023-03-06T16:34:50.112Z,68.50
2023-03-06T16:37:16.993Z,65.85
2023-03-06T16:39:43.804Z,65.86
2023-03-06T16:42:13.618Z,66.64
2023-03-06T16:44:40.527Z,67.74
2023-03-06T16:47:14.619Z,68.63
2023-03-06T16:49:41.326Z,67.26
2023-03-06T16:52:16.311Z,68.61
2023-03-06T16:54:44.811Z,66.03
2023-03-06T16:57:27.395Z,67.94
2023-03-06T16:59:56.851Z,67.41
2023-03-06T17:02:26.494Z,66.56
2023-03-06T17:04:55.751Z,68.39
2023-03-06T17:07:23.793Z,68.02
2023-03-06T17:09:50.391Z,68.69
2023-03-06T17:12:17.061Z,67.47
2023-03-06T17:14:43.693Z,68.32
2023-03-06T17:17:10.298Z,67.18
2023-03-06T17:19:36.910Z,67.36
2023-03-06T17:22:03.674Z,68.16
2023-03-06T17:24:31.618Z,67.10
2023-03-06T17:26:58.237Z,68.09
2023-03-06T17:29:24.866Z,68.49
2023-03-06T17:31:51.520Z,68.47
2023-03-06T17:34:18.346Z,68.04
2023-03-06T17:36:44.960Z,68.43
2023-03-06T17:39:11.590Z,68.97
2023-03-06T17:41:38.286Z,67.90
2023-03-06T17:44:05.427Z,68.40
2023-03-06T17:46:32.181Z,68.13
2023-03-06T17:48:58.888Z,68.59
2023-03-06T17:51:25.558Z,67.60
2023-03-06T17:53:52.145Z,67.84
2023-03-06T17:56:18.805Z,69.33
2023-03-06T17:58:45.650Z,68.95
2023-03-06T18:01:23.974Z,70.04
2023-03-06T18:03:51.706Z,68.72
2023-03-06T18:06:19.505Z,69.12
2023-03-06T18:08:47.326Z,68.61
2023-03-06T18:11:14.659Z,70.13
2023-03-06T18:13:43.608Z,69.51
2023-03-06T18:16:15.897Z,69.36
2023-03-06T18:18:42.563Z,71.07
2023-03-06T18:21:15.504Z,69.11
2023-03-06T18:23:56.286Z,71.04
2023-03-06T18:26:25.780Z,70.47
2023-03-06T18:28:58.212Z,70.88
2023-03-06T18:31:34.700Z,69.77
2023-03-06T18:34:14.741Z,70.62
2023-03-06T18:36:42.284Z,70.84
2023-03-06T18:39:12.516Z,71.96
2023-03-06T18:41:57.786Z,71.12
2023-03-06T18:44:24.557Z,70.84
2023-03-06T18:46:57.929Z,71.18
2023-03-06T18:49:46.270Z,71.21
2023-03-06T18:52:15.526Z,72.39
2023-03-06T18:54:42.289Z,71.53
2023-03-06T18:57:30.418Z,71.84
2023-03-06T19:00:00.558Z,71.90
2023-03-06T19:02:27.481Z,72.37
2023-03-06T19:04:57.059Z,72.42
2023-03-06T19:07:24.475Z,72.30
2023-03-06T19:09:51.077Z,72.92
2023-03-06T19:12:18.787Z,72.71
2023-03-06T19:14:45.423Z,73.68
2023-03-06T19:17:12.015Z,72.20
2023-03-06T19:19:38.703Z,72.93
2023-03-06T19:22:05.324Z,71.98
2023-03-06T19:24:32.133Z,71.67
2023-03-06T19:26:58.740Z,71.82
2023-03-06T19:29:27.599Z,72.65
2023-03-06T19:31:57.545Z,72.45
2023-03-06T19:34:26.726Z,73.02
2023-03-06T19:36:56.269Z,72.04
2023-03-06T19:39:25.696Z,72.54
2023-03-06T19:41:52.473Z,71.07
2023-03-06T19:44:21.830Z,71.32
2023-03-06T19:49:31.813Z,72.86
2023-03-06T19:51:58.401Z,72.35
2023-03-06T19:54:32.590Z,72.03
2023-03-06T19:56:59.458Z,73.20
2023-03-06T19:59:27.907Z,72.90
2023-03-06T20:01:54.610Z,73.75
2023-03-06T20:04:21.206Z,73.30
2023-03-06T20:06:54.776Z,71.65
2023-03-06T20:09:21.450Z,72.37
2023-03-06T20:11:54.575Z,72.48
2023-03-06T20:14:25.372Z,72.68
2023-03-06T20:16:57.655Z,70.57
2023-03-06T20:19:26.944Z,71.91
2023-03-06T20:22:06.419Z,70.58
2023-03-06T20:24:32.989Z,72.36
2023-03-06T20:27:05.677Z,69.45
2023-03-06T20:29:32.313Z,71.16
2023-03-06T20:32:02.012Z,69.82
2023-03-06T20:34:28.624Z,69.62
2023-03-06T20:36:55.276Z,70.95
2023-03-06T20:39:26.902Z,70.16
2023-03-06T20:41:59.451Z,71.40
2023-03-06T20:44:29.450Z,68.94
2023-03-06T20:46:58.767Z,68.36
2023-03-06T20:49:34.331Z,70.76
2023-03-06T20:52:00.910Z,69.50
2023-03-06T20:54:27.509Z,68.51
2023-03-06T20:56:54.064Z,69.40
2023-03-06T20:59:20.896Z,69.05
2023-03-06T21:01:50.549Z,70.45
2023-03-06T21:04:19.601Z,68.86
2023-03-06T21:06:49.149Z,70.42
2023-03-06T21:09:24.731Z,66.95
2023-03-06T21:11:51.314Z,68.76
2023-03-06T21:14:17.931Z,69.77
2023-03-06T21:16:47.751Z,70.65
2023-03-06T21:19:32.473Z,67.88
2023-03-06T21:22:01.127Z,67.25
2023-03-06T21:24:28.027Z,68.81
2023-03-06T21:26:54.880Z,68.33
2023-03-06T21:29:29.697Z,71.32
2023-03-06T21:32:02.368Z,67.14
2023-03-06T21:34:35.091Z,70.27
2023-03-06T21:37:10.493Z,70.00
2023-03-06T21:39:39.802Z,69.51
2023-03-06T21:42:06.541Z,69.98
2023-03-06T21:44:41.060Z,67.53
2023-03-06T21:47:10.802Z,66.43
2023-03-06T21:49:45.908Z,68.48
2023-03-06T21:52:22.499Z,67.20
2023-03-06T21:54:51.946Z,66.00
2023-03-06T21:57:18.469Z,67.27
2023-03-06T21:59:47.964Z,69.90
2023-03-06T22:02:17.450Z,65.88
2023-03-06T22:05:02.334Z,66.30
2023-03-06T22:07:29.920Z,68.74
2023-03-06T22:09:56.717Z,69.00
2023-03-06T22:12:34.160Z,68.23
2023-03-06T22:15:00.759Z,69.49
2023-03-06T22:17:28.435Z,70.83
2023-03-06T22:19:55.759Z,66.67
2023-03-06T22:22:22.420Z,68.16
2023-03-06T22:24:51.398Z,67.04
2023-03-06T22:27:17.998Z,65.83
2023-03-06T22:29:45.688Z,67.21
2023-03-06T22:32:16.009Z,68.15
2023-03-06T22:34:42.662Z,66.29
2023-03-06T22:37:20.606Z,66.27
2023-03-06T22:39:56.487Z,65.03
2023-03-06T22:42:30.584Z,65.81
2023-03-06T22:44:57.227Z,69.29
2023-03-06T22:47:37.168Z,69.92
2023-03-06T22:50:07.193Z,66.79
2023-03-06T22:52:41.970Z,64.83
2023-03-06T22:55:09.492Z,68.30
2023-03-06T22:57:43.067Z,68.68
2023-03-06T23:00:14.392Z,67.96
2023-03-06T23:02:56.626Z,67.45
2023-03-06T23:05:29.344Z,67.04
2023-03-06T23:07:56.069Z,67.98
2023-03-06T23:10:22.703Z,65.27
2023-03-06T23:12:52.066Z,65.20
2023-03-06T23:15:21.310Z,67.50
2023-03-06T23:17:53.893Z,67.10
2023-03-06T23:23:13.798Z,68.50
2023-03-06T23:25:42.940Z,66.80
2023-03-06T23:28:09.517Z,68.60
2023-03-06T23:30:39.049Z,66.37
2023-03-06T23:33:07.866Z,67.55
2023-03-06T23:35:45.498Z,69.93
2023-03-06T23:38:18.094Z,70.11
2023-03-06T23:40:44.692Z,66.07
2023-03-06T23:43:13.005Z,68.56
2023-03-06T23:45:39.768Z,65.12
2023-03-06T23:48:09.386Z,70.33
2023-03-06T23:50:47.907Z,64.79
2023-03-06T23:53:14.636Z,65.09
2023-03-06T23:55:48.765Z,66.83
2023-03-06T23:58:25.811Z,65.15
